Xianyang, China
Current Conditions -  °F | °C
As of 11:00 AM on Saturday 20 Dec 2014 (Local Time) from ZLXY Reporting Station
Clear Clear  
Wind Chill: 30°   Ceiling: Unl
Heat Index: 36°   Visibility: 6mi
Dew Point:   Wind: 7mph
Humidity: 26%   Direction: 80°E
Pressure: 30.39"   Gusts: NA
Location:  34.37°N, 108.7°E
Report Text: ZLXY 200300Z 08003MPS 010V100 CAVOK 02/M16 Q1029 NOSIG
Loading
Personal Weather Stations






























Interactive Weather Map New forecast layout! Learn more

10-Day Weather Forecast

Advertisements
Track Severe Weather on mobile